Time;durP1;ratioP1;P1;durP2;ratioP2;P2;SDS_P1;SDS_P2;PMS_P1;PMS_P2;Temp;Humidity;BMP_temperature;BMP_pressure;BME280_temperature;BME280_humidity;BME280_pressure;Samples;Min_cycle;Max_cycle;Signal;HPM_P1;HPM_P2
2022/04/17 00:02:05;;;;;;;2.08;1.42;;;;;;;5.78;63.82;99607.69;4987198;28;20330;-88
2022/04/17 00:04:30;;;;;;;2.92;1.58;;;;;;;6.02;61.35;99615.94;4987003;28;20310;-88
2022/04/17 00:06:56;;;;;;;1.80;1.23;;;;;;;6.26;60.62;99617.13;4987054;28;20033;-88
2022/04/17 00:09:21;;;;;;;3.50;1.77;;;;;;;6.44;59.77;99616.50;4986944;28;20034;-88
2022/04/17 00:11:47;;;;;;;2.90;2.13;;;;;;;6.32;60.62;99612.00;4986864;28;20102;-88
2022/04/17 00:14:12;;;;;;;12.55;2.08;;;;;;;6.35;61.13;99595.47;4986704;28;20019;-88
2022/04/17 00:16:40;;;;;;;6.90;2.20;;;;;;;6.05;63.14;99595.94;4986784;28;20023;-88
2022/04/17 00:19:06;;;;;;;5.45;2.35;;;;;;;6.12;62.62;99591.69;4986567;28;20026;-88
2022/04/17 00:21:32;;;;;;;2.97;1.92;;;;;;;6.25;61.18;99593.59;4986618;28;20317;-88
2022/04/17 00:23:58;;;;;;;7.20;2.60;;;;;;;6.07;62.59;99591.63;4986705;28;20158;-88
2022/04/17 00:26:23;;;;;;;7.88;2.67;;;;;;;5.90;63.20;99592.22;4986368;28;20030;-88
2022/04/17 00:28:48;;;;;;;4.13;2.50;;;;;;;6.01;62.71;99598.50;4986394;28;20058;-88
2022/04/17 00:31:14;;;;;;;5.80;2.08;;;;;;;6.17;61.80;99603.09;4986302;28;20250;-88
2022/04/17 00:33:39;;;;;;;4.75;2.55;;;;;;;6.09;62.12;99592.53;4987465;28;20022;-88
2022/04/17 00:36:05;;;;;;;8.45;2.75;;;;;;;6.09;61.80;99581.19;4987455;28;20027;-88
2022/04/17 00:38:30;;;;;;;5.78;2.05;;;;;;;6.08;61.99;99595.97;4987660;28;20023;-88
2022/04/17 00:40:56;;;;;;;4.75;2.10;;;;;;;6.25;61.63;99617.13;4986779;28;20266;-88
2022/04/17 00:43:26;;;;;;;4.57;1.40;;;;;;;6.35;60.81;99600.69;4987278;28;20023;-88
2022/04/17 00:45:55;;;;;;;5.38;2.03;;;;;;;6.24;61.18;99594.47;4986111;28;20050;-88
2022/04/17 00:48:21;;;;;;;3.97;2.08;;;;;;;6.24;61.02;99592.69;4986132;28;20019;-88
2022/04/17 00:50:48;;;;;;;3.90;1.80;;;;;;;6.37;60.47;99598.97;4985864;28;20026;-88
2022/04/17 00:53:14;;;;;;;3.25;1.88;;;;;;;6.41;60.22;99598.16;4986166;28;20226;-88
2022/04/17 00:55:41;;;;;;;4.00;1.73;;;;;;;6.51;60.02;99592.16;4986215;28;20023;-88
2022/04/17 00:58:08;;;;;;;4.13;2.10;;;;;;;6.46;60.30;99593.88;4986011;28;20254;-88
2022/04/17 01:00:33;;;;;;;10.48;1.83;;;;;;;6.46;60.54;99588.66;4986019;28;20401;-88
2022/04/17 01:03:00;;;;;;;3.35;1.80;;;;;;;6.46;60.55;99580.78;4985854;28;20027;-88
2022/04/17 01:05:25;;;;;;;5.07;2.15;;;;;;;6.37;61.06;99583.28;4985853;28;20226;-88
2022/04/17 01:07:53;;;;;;;3.58;1.88;;;;;;;6.50;60.25;99579.97;4986029;28;20026;-88
2022/04/17 01:10:18;;;;;;;5.78;2.70;;;;;;;6.51;60.15;99576.47;4985801;28;20053;-88
2022/04/17 01:12:44;;;;;;;5.82;2.75;;;;;;;6.37;60.89;99568.47;5001875;28;20098;-88
2022/04/17 01:15:14;;;;;;;5.55;2.92;;;;;;;6.34;61.21;99571.06;4985531;28;20031;-88
2022/04/17 01:17:39;;;;;;;6.95;3.08;;;;;;;6.33;61.04;99576.28;4986655;28;20026;-88
2022/04/17 01:20:06;;;;;;;3.88;1.83;;;;;;;6.30;60.47;99555.31;4986749;28;20019;-88
2022/04/17 01:22:31;;;;;;;7.43;2.88;;;;;;;6.06;63.24;99549.78;4985393;28;20226;-88
2022/04/17 01:27:41;;;;;;;4.35;2.28;;;;;;;6.21;61.51;99550.84;4986624;28;20026;-88
2022/04/17 01:30:07;;;;;;;4.60;2.35;;;;;;;6.20;61.30;99551.72;4984677;28;20022;-88
2022/04/17 01:32:33;;;;;;;10.60;3.10;;;;;;;5.94;63.37;99544.38;4986392;28;20078;-88
2022/04/17 01:34:59;;;;;;;5.10;2.92;;;;;;;5.91;63.22;99544.34;5001580;28;20026;-88
2022/04/17 01:37:24;;;;;;;4.45;2.38;;;;;;;5.94;63.04;99540.03;4985089;28;20023;-88
2022/04/17 01:39:50;;;;;;;5.75;2.35;;;;;;;5.94;63.49;99544.38;4985291;28;20318;-88
2022/04/17 01:42:16;;;;;;;4.55;2.38;;;;;;;6.01;62.27;99546.25;4985239;28;20441;-88
2022/04/17 01:44:42;;;;;;;5.70;1.92;;;;;;;6.03;62.07;99544.50;4985457;28;20057;-88
2022/04/17 01:47:07;;;;;;;10.50;2.53;;;;;;;5.91;63.11;99546.94;4985136;28;20199;-88
2022/04/17 01:49:33;;;;;;;5.45;2.70;;;;;;;5.77;63.98;99535.41;4986014;28;20042;-88
2022/04/17 01:52:00;;;;;;;5.47;2.72;;;;;;;5.67;64.60;99538.75;4986189;28;20026;-88
2022/04/17 01:54:27;;;;;;;3.60;1.73;;;;;;;5.54;65.92;99536.84;4986088;28;20218;-88
2022/04/17 01:56:55;;;;;;;4.75;2.70;;;;;;;5.16;67.86;99523.16;4985264;28;20065;-88
2022/04/17 01:59:22;;;;;;;4.80;2.13;;;;;;;5.27;66.42;99525.94;4984871;28;20054;-88
2022/04/17 02:01:48;;;;;;;3.70;2.42;;;;;;;5.19;67.22;99532.81;4984898;28;20058;-88
2022/04/17 02:04:14;;;;;;;4.63;2.63;;;;;;;4.64;69.94;99522.25;4984915;28;20090;-88
2022/04/17 02:06:41;;;;;;;4.10;2.30;;;;;;;4.35;70.84;99516.53;4984920;28;20310;-88
2022/04/17 02:09:08;;;;;;;6.03;2.85;;;;;;;4.09;72.58;99528.16;4985808;28;20060;-88
2022/04/17 02:11:34;;;;;;;4.50;2.42;;;;;;;3.97;73.20;99523.59;4984751;28;20381;-88
2022/04/17 02:13:59;;;;;;;10.65;2.40;;;;;;;3.77;73.58;99514.44;4985761;28;20018;-88
2022/04/17 02:16:25;;;;;;;5.30;2.72;;;;;;;3.84;74.04;99518.09;4984477;28;20074;-88
2022/04/17 02:18:52;;;;;;;6.97;2.72;;;;;;;3.72;74.25;99523.91;5000661;28;20070;-88
2022/04/17 02:21:18;;;;;;;8.27;3.22;;;;;;;3.62;75.19;99518.47;4985630;28;20018;-88
2022/04/17 02:23:44;;;;;;;7.60;2.58;;;;;;;3.43;75.45;99509.38;5000566;28;20044;-88
2022/04/17 02:26:11;;;;;;;15.90;3.53;;;;;;;3.49;76.14;99519.94;4984384;28;20102;-88
2022/04/17 02:28:38;;;;;;;7.75;2.78;;;;;;;3.83;73.77;99511.97;4984576;28;20372;-88
2022/04/17 02:31:08;;;;;;;7.75;2.42;;;;;;;3.79;74.28;99517.09;4985399;28;20030;-88
2022/04/17 02:33:34;;;;;;;5.90;2.35;;;;;;;3.87;73.34;99506.03;4984260;28;20378;-88
2022/04/17 02:35:59;;;;;;;5.30;2.97;;;;;;;3.83;73.66;99504.16;4984550;28;20381;-88
2022/04/17 02:38:25;;;;;;;4.22;2.42;;;;;;;3.92;73.53;99508.69;4984268;28;20023;-88
2022/04/17 02:40:53;;;;;;;3.78;2.20;;;;;;;3.83;73.59;99492.91;5000639;28;20348;-88
2022/04/17 02:43:18;;;;;;;4.95;2.70;;;;;;;3.98;73.03;99509.72;4986659;28;20026;-88
2022/04/17 02:45:44;;;;;;;7.53;2.70;;;;;;;3.90;73.18;99500.84;4988043;28;20279;-88
2022/04/17 02:48:10;;;;;;;7.00;2.50;;;;;;;4.04;72.66;99504.63;4988017;28;20199;-88
2022/04/17 02:50:35;;;;;;;8.23;3.20;;;;;;;4.11;72.36;99496.06;4988091;28;20061;-88
2022/04/17 02:53:01;;;;;;;8.20;2.85;;;;;;;4.22;71.63;99514.53;4987818;28;20022;-88
2022/04/17 02:55:27;;;;;;;3.65;2.50;;;;;;;4.48;70.47;99497.66;4987890;28;20082;-88
2022/04/17 02:57:54;;;;;;;7.97;2.72;;;;;;;4.66;68.98;99497.09;4987628;28;20030;-88
2022/04/17 03:00:19;;;;;;;5.80;2.95;;;;;;;4.80;68.69;99495.59;4988149;28;20026;-88
2022/04/17 03:05:37;;;;;;;6.60;2.90;;;;;;;4.78;68.57;99492.97;4989203;28;20069;-88
2022/04/17 03:08:14;;;;;;;7.22;2.17;;;;;;;4.69;68.71;99486.72;4987986;28;20300;-88
2022/04/17 03:10:46;;;;;;;7.20;2.90;;;;;;;4.78;68.53;99489.50;4989019;28;20027;-88
2022/04/17 03:13:12;;;;;;;9.75;3.38;;;;;;;4.73;68.60;99485.91;4988758;28;20022;-88
2022/04/17 03:15:38;;;;;;;5.88;2.70;;;;;;;4.81;67.98;99498.22;4987683;28;20058;-88
2022/04/17 03:18:05;;;;;;;14.25;3.53;;;;;;;4.70;68.13;99493.69;4987649;28;20023;-88
2022/04/17 03:20:31;;;;;;;5.50;2.60;;;;;;;4.66;68.81;99486.66;4987733;28;20018;-88
2022/04/17 03:22:57;;;;;;;3.50;2.58;;;;;;;4.73;68.44;99483.31;4987565;28;20218;-88
2022/04/17 03:25:22;;;;;;;5.53;3.15;;;;;;;4.47;69.29;99475.91;4988671;28;20073;-88
2022/04/17 03:27:48;;;;;;;9.32;2.72;;;;;;;4.50;68.96;99475.97;5003874;28;20018;-88
2022/04/17 03:30:15;;;;;;;7.93;3.47;;;;;;;4.38;70.20;99473.16;4987710;28;20027;-88
2022/04/17 03:32:42;;;;;;;8.73;3.08;;;;;;;4.26;69.98;99465.13;4987513;28;20070;-88
2022/04/17 03:35:08;;;;;;;7.90;2.97;;;;;;;4.33;70.22;99461.75;4987530;28;20023;-88
2022/04/17 03:37:34;;;;;;;3.80;2.63;;;;;;;4.44;69.39;99465.44;4987540;28;20299;-88
2022/04/17 03:40:00;;;;;;;9.27;3.75;;;;;;;4.61;68.53;99467.44;5003558;28;20099;-88
2022/04/17 03:42:25;;;;;;;6.20;2.72;;;;;;;4.73;67.77;99457.22;4987345;28;20027;-88
2022/04/17 03:44:50;;;;;;;11.95;3.00;;;;;;;4.78;67.35;99460.81;4988381;28;20098;-88
2022/04/17 03:47:16;;;;;;;8.18;2.42;;;;;;;4.75;67.74;99451.22;4987415;28;20015;-88
2022/04/17 03:49:43;;;;;;;6.82;2.75;;;;;;;4.87;67.19;99455.75;4987090;28;20326;-88
2022/04/17 03:52:08;;;;;;;9.63;3.20;;;;;;;4.79;67.69;99447.78;5003374;28;20318;-88
2022/04/17 03:54:34;;;;;;;5.05;2.88;;;;;;;4.76;67.30;99442.53;4986966;28;20030;-88
2022/04/17 03:56:59;;;;;;;7.30;3.00;;;;;;;4.80;67.35;99439.13;4986899;28;20322;-88
2022/04/17 03:59:25;;;;;;;6.25;2.47;;;;;;;4.71;67.70;99438.09;4986996;28;20026;-88
2022/04/17 04:01:50;;;;;;;5.20;2.72;;;;;;;4.71;67.82;99438.97;4987034;28;20033;-88
2022/04/17 04:04:16;;;;;;;4.35;3.00;;;;;;;4.71;68.12;99448.53;4987547;28;20046;-88
2022/04/17 04:06:42;;;;;;;7.00;3.95;;;;;;;4.69;67.54;99434.56;4986906;28;20037;-88
2022/04/17 04:09:07;;;;;;;5.70;3.35;;;;;;;4.53;68.39;99434.31;4986943;28;20045;-88
2022/04/17 04:11:33;;;;;;;7.25;3.10;;;;;;;4.52;68.90;99436.03;4986611;28;20019;-88
2022/04/17 04:13:59;;;;;;;4.82;2.65;;;;;;;4.56;68.25;99435.22;4986972;28;20019;-88
2022/04/17 04:16:24;;;;;;;10.65;3.25;;;;;;;4.36;69.23;99435.75;4987011;28;20310;-88
2022/04/17 04:18:50;;;;;;;9.02;2.88;;;;;;;4.28;69.75;99436.47;4986566;28;20030;-88
2022/04/17 04:21:15;;;;;;;7.90;3.60;;;;;;;4.33;69.31;99445.25;4986621;28;20238;-88
2022/04/17 04:23:41;;;;;;;14.95;3.28;;;;;;;4.38;69.22;99444.50;4986339;28;20023;-88
2022/04/17 04:26:07;;;;;;;4.88;2.80;;;;;;;4.42;68.46;99441.09;4986597;28;20050;-88
2022/04/17 04:28:38;;;;;;;7.03;3.17;;;;;;;4.35;69.12;99434.00;4986575;28;20014;-88
2022/04/17 04:31:12;;;;;;;7.03;2.90;;;;;;;4.31;68.90;99426.97;4986440;28;20033;-88
2022/04/17 04:33:40;;;;;;;4.60;2.80;;;;;;;4.38;68.57;99439.28;5002597;28;20026;-88
2022/04/17 04:36:07;;;;;;;4.75;2.90;;;;;;;4.21;69.62;99432.88;4987417;28;20060;-88
2022/04/17 04:38:33;;;;;;;4.85;2.25;;;;;;;4.19;69.39;99426.78;4986381;28;20041;-88
2022/04/17 04:40:59;;;;;;;8.23;3.50;;;;;;;4.12;70.12;99424.88;4986159;28;20089;-88
2022/04/17 04:43:25;;;;;;;10.93;3.17;;;;;;;4.23;69.80;99431.19;4987218;28;20034;-88
2022/04/17 04:46:06;;;;;;;4.15;2.72;;;;;;;4.06;70.59;99430.00;5002427;28;20019;-88
2022/04/17 04:51:20;;;;;;;5.63;2.50;;;;;;;3.91;70.77;99419.28;4987317;28;20065;-88
2022/04/17 04:53:45;;;;;;;7.68;3.40;;;;;;;3.83;71.58;99426.06;4985936;28;20029;-88
2022/04/17 04:56:13;;;;;;;5.53;2.65;;;;;;;3.92;71.18;99426.25;4987009;28;20370;-88
2022/04/17 04:58:38;;;;;;;12.82;3.50;;;;;;;3.87;71.06;99422.69;4985839;28;20027;-88
2022/04/17 05:01:04;;;;;;;5.90;2.50;;;;;;;4.00;71.19;99435.09;4985894;28;20259;-88
2022/04/17 05:03:29;;;;;;;9.07;2.90;;;;;;;3.95;70.46;99436.72;4985929;28;20022;-88
2022/04/17 05:05:55;;;;;;;6.70;3.15;;;;;;;4.06;70.22;99432.59;4984953;28;20073;-88
2022/04/17 05:08:20;;;;;;;4.57;2.80;;;;;;;4.11;69.92;99430.94;4985862;28;20056;-88
2022/04/17 05:10:47;;;;;;;21.55;3.08;;;;;;;4.19;70.32;99437.19;4985721;28;20218;-88
2022/04/17 05:13:12;;;;;;;6.57;3.05;;;;;;;4.79;69.02;99452.13;4985534;28;20026;-88
2022/04/17 05:15:38;;;;;;;6.32;2.88;;;;;;;5.57;66.21;99455.94;4985538;28;20055;-88
2022/04/17 05:18:04;;;;;;;5.45;2.85;;;;;;;5.96;64.54;99453.84;4986715;28;20089;-88
2022/04/17 05:20:33;;;;;;;9.43;3.00;;;;;;;6.35;62.99;99459.50;4986620;28;20022;-88
2022/04/17 05:23:19;;;;;;;8.60;2.60;;;;;;;6.79;61.43;99468.66;4985544;28;20019;-88
2022/04/17 05:25:50;;;;;;;6.63;3.47;;;;;;;7.21;59.90;99466.38;4986698;28;20053;-88
2022/04/17 05:28:16;;;;;;;6.38;3.05;;;;;;;7.77;58.75;99467.59;4985479;28;20037;-88
2022/04/17 05:30:42;;;;;;;7.47;3.17;;;;;;;7.88;57.14;99468.50;4985361;28;20395;-88
2022/04/17 05:33:07;;;;;;;8.45;3.42;;;;;;;7.90;57.07;99466.78;4985411;28;20049;-88
2022/04/17 05:35:33;;;;;;;7.82;3.47;;;;;;;8.07;56.65;99462.47;4985444;28;20319;-88
2022/04/17 05:37:59;;;;;;;6.80;3.17;;;;;;;8.61;55.62;99473.16;4985228;28;20022;-88
2022/04/17 05:40:24;;;;;;;5.90;3.28;;;;;;;9.14;54.16;99472.31;4986284;28;20068;-88
2022/04/17 05:42:50;;;;;;;5.47;2.83;;;;;;;9.44;52.81;99477.53;4985149;28;20053;-88
2022/04/17 05:45:16;;;;;;;6.72;2.88;;;;;;;10.10;51.92;99480.03;4986226;28;20030;-88
2022/04/17 05:47:42;;;;;;;4.00;2.80;;;;;;;10.27;50.11;99478.19;4985080;28;20341;-88
2022/04/17 05:50:07;;;;;;;7.75;3.35;;;;;;;10.33;49.80;99486.06;5001399;28;20065;-88
2022/04/17 05:52:33;;;;;;;15.10;3.42;;;;;;;10.15;49.75;99494.91;4984920;28;20334;-88
2022/04/17 05:54:59;;;;;;;6.85;3.60;;;;;;;10.22;49.61;99495.75;4985017;28;20326;-88
2022/04/17 05:57:25;;;;;;;4.90;2.78;;;;;;;10.97;48.17;99505.00;4986318;28;20037;-88
2022/04/17 05:59:50;;;;;;;5.57;3.20;;;;;;;10.60;48.67;99491.19;4985012;28;20345;-89
2022/04/17 06:02:15;;;;;;;3.70;2.75;;;;;;;11.12;48.48;99505.72;4986062;28;20253;-88
2022/04/17 06:04:42;;;;;;;7.63;3.30;;;;;;;11.49;46.71;99506.31;4984742;28;20077;-88
2022/04/17 06:07:08;;;;;;;6.00;2.65;;;;;;;11.67;45.94;99491.19;4984856;28;20019;-88
2022/04/17 06:09:34;;;;;;;5.07;2.70;;;;;;;12.29;45.50;99499.28;4984794;28;20026;-88
2022/04/17 06:12:00;;;;;;;4.00;2.47;;;;;;;12.51;45.58;99495.50;4984711;28;20341;-88
2022/04/17 06:14:25;;;;;;;5.70;2.83;;;;;;;11.99;44.96;99486.44;4984496;28;20056;-88
2022/04/17 06:16:51;;;;;;;4.75;2.22;;;;;;;12.55;44.20;99485.72;4984692;28;20027;-88
2022/04/17 06:19:17;;;;;;;5.28;3.00;;;;;;;13.00;43.07;99487.72;4984553;28;20029;-88
2022/04/17 06:21:43;;;;;;;7.55;2.50;;;;;;;13.38;43.78;99492.44;4985802;28;20019;-88
2022/04/17 06:24:08;;;;;;;5.40;2.33;;;;;;;14.03;41.29;99505.31;4984718;28;20211;-89
2022/04/17 06:26:34;;;;;;;2.97;2.08;;;;;;;13.85;41.51;99510.94;4985631;28;20045;-88
2022/04/17 06:29:03;;;;;;;5.55;2.33;;;;;;;13.64;42.06;99496.34;4984379;28;20023;-88
2022/04/17 06:31:30;;;;;;;7.28;2.28;;;;;;;13.69;41.54;99496.25;4984466;28;20019;-89
2022/04/17 06:33:55;;;;;;;7.40;2.22;;;;;;;14.06;41.04;99498.22;4984382;28;20230;-89
2022/04/17 06:36:21;;;;;;;5.88;2.20;;;;;;;13.76;40.53;99497.91;4984827;28;20025;-89
2022/04/17 06:38:46;;;;;;;3.78;2.20;;;;;;;13.95;40.89;99497.53;4984663;28;20333;-88
2022/04/17 06:41:12;;;;;;;5.13;1.88;;;;;;;14.29;40.91;99503.06;4984447;28;20022;-88
2022/04/17 06:43:37;;;;;;;5.28;1.95;;;;;;;14.14;39.47;99503.34;4984321;28;20022;-88
2022/04/17 06:46:03;;;;;;;7.90;2.30;;;;;;;13.41;40.87;99497.66;4984103;28;20023;-88
2022/04/17 06:48:29;;;;;;;6.10;2.00;;;;;;;13.79;40.10;99506.66;4984312;28;20019;-88
2022/04/17 06:50:55;;;;;;;3.05;1.92;;;;;;;13.23;40.02;99492.66;4984163;28;20033;-89
2022/04/17 06:53:21;;;;;;;4.72;1.92;;;;;;;13.86;40.60;99496.84;4984376;28;20386;-89
2022/04/17 06:55:50;;;;;;;3.83;2.05;;;;;;;14.19;38.86;99490.88;4984057;28;20046;-88
2022/04/17 06:58:17;;;;;;;2.85;1.95;;;;;;;13.98;39.09;99501.91;4984075;28;20027;-88
2022/04/17 07:00:43;;;;;;;4.63;2.00;;;;;;;14.43;38.68;99528.34;4984005;28;20342;-88
2022/04/17 07:03:08;;;;;;;6.15;1.90;;;;;;;14.04;38.95;99491.16;4985230;28;20050;-88
2022/04/17 07:05:34;;;;;;;5.68;2.30;;;;;;;13.79;39.42;99495.22;4984408;28;20022;-89
2022/04/17 07:08:02;;;;;;;3.20;1.85;;;;;;;14.10;38.40;99514.88;4984121;28;20018;-89
2022/04/17 07:10:29;;;;;;;2.55;1.70;;;;;;;13.84;38.97;99493.34;4983868;28;20236;-89
2022/04/17 07:12:54;;;;;;;2.30;1.30;;;;;;;13.64;39.72;99491.03;4983952;28;20023;-89
2022/04/17 07:15:20;;;;;;;4.63;2.40;;;;;;;14.16;38.08;99485.66;4983889;28;20088;-89
2022/04/17 07:17:46;;;;;;;3.30;1.90;;;;;;;13.72;38.73;99472.38;4983907;28;20329;-89
2022/04/17 07:20:12;;;;;;;5.47;1.50;;;;;;;13.97;37.80;99511.63;4983853;28;20019;-89
2022/04/17 07:22:42;;;;;;;3.28;1.80;;;;;;;13.91;38.19;99490.56;4983812;28;20026;-88
2022/04/17 07:25:09;;;;;;;3.10;1.75;;;;;;;14.19;38.15;99488.22;4983687;28;20054;-89
2022/04/17 07:27:43;;;;;;;3.55;1.70;;;;;;;14.29;37.78;99477.47;4983856;28;20057;-89
2022/04/17 07:30:14;;;;;;;2.78;1.80;;;;;;;14.51;38.19;99476.09;4988512;28;20094;-89
2022/04/17 07:32:40;;;;;;;2.35;1.50;;;;;;;14.75;38.06;99472.88;4987334;28;20030;-89
2022/04/17 07:35:07;;;;;;;3.97;1.52;;;;;;;14.88;37.02;99500.00;5003685;28;20022;-89
2022/04/17 07:37:34;;;;;;;3.38;1.83;;;;;;;15.17;36.40;99476.31;4987265;28;20285;-89
2022/04/17 07:40:00;;;;;;;2.88;1.80;;;;;;;15.16;36.42;99482.53;4988450;28;20018;-89
2022/04/17 07:42:25;;;;;;;2.97;1.65;;;;;;;15.46;36.63;99479.16;4987332;28;20022;-89
2022/04/17 07:44:50;;;;;;;5.28;2.00;;;;;;;15.01;36.20;99485.56;4987222;28;20019;-89
2022/04/17 07:47:16;;;;;;;4.40;1.85;;;;;;;15.20;36.28;99492.16;4987030;28;20042;-89
2022/04/17 07:49:43;;;;;;;3.03;1.52;;;;;;;15.24;35.70;99485.88;4987077;28;20062;-89
2022/04/17 07:52:08;;;;;;;2.67;1.52;;;;;;;15.72;35.60;99487.31;4988359;28;20065;-89
2022/04/17 07:54:34;;;;;;;2.13;1.45;;;;;;;14.95;36.14;99467.13;4988393;28;20031;-89
2022/04/17 07:57:00;;;;;;;2.83;1.30;;;;;;;14.66;35.88;99461.63;4986919;28;20251;-89
2022/04/17 07:59:25;;;;;;;4.15;1.52;;;;;;;14.80;35.62;99459.53;4988323;28;20046;-89
2022/04/17 08:02:01;;;;;;;1.73;1.42;;;;;;;14.70;35.83;99477.44;4987260;28;20026;-89
2022/04/17 08:04:30;;;;;;;3.08;1.40;;;;;;;15.09;35.13;99467.66;4987930;28;20093;-89
2022/04/17 08:06:56;;;;;;;4.63;1.83;;;;;;;15.28;34.95;99455.69;4986815;28;20035;-89
2022/04/17 08:09:21;;;;;;;3.28;1.40;;;;;;;15.65;34.17;99469.81;4986782;28;20297;-89
2022/04/17 08:11:51;;;;;;;5.18;1.38;;;;;;;15.27;33.86;99461.91;4987825;28;20022;-89
2022/04/17 08:14:18;;;;;;;4.53;1.50;;;;;;;15.14;33.93;99447.22;4986660;28;20030;-89
2022/04/17 08:16:43;;;;;;;7.65;1.40;;;;;;;14.97;33.89;99463.53;4986662;28;20023;-89
2022/04/17 08:19:09;;;;;;;1.73;1.20;;;;;;;15.85;33.11;99466.63;4987513;28;20090;-89
2022/04/17 08:21:35;;;;;;;1.55;1.33;;;;;;;15.69;32.58;99446.72;5002690;28;20019;-89
2022/04/17 08:24:01;;;;;;;5.15;1.92;;;;;;;15.73;32.88;99449.25;4986397;28;20076;-89
2022/04/17 08:26:26;;;;;;;3.80;2.00;;;;;;;15.52;33.00;99455.13;5002630;28;20050;-89
2022/04/17 08:28:52;;;;;;;2.97;1.52;;;;;;;15.25;33.11;99445.16;4986394;28;20040;-89
2022/04/17 08:31:17;;;;;;;2.28;1.30;;;;;;;15.59;33.51;99448.72;4986347;28;20322;-89
2022/04/17 08:33:42;;;;;;;2.47;1.08;;;;;;;16.37;33.79;99450.94;4986255;28;20030;-89
2022/04/17 08:36:08;;;;;;;2.65;1.17;;;;;;;17.18;32.56;99457.25;4986297;28;20029;-89
2022/04/17 08:38:34;;;;;;;1.92;1.33;;;;;;;17.12;32.25;99449.47;4986358;28;20154;-89
2022/04/17 08:41:05;;;;;;;2.83;1.42;;;;;;;17.01;31.92;99435.66;4985010;28;20258;-89
2022/04/17 08:43:31;;;;;;;3.10;1.52;;;;;;;17.12;31.79;99437.97;4986109;28;20023;-89
2022/04/17 08:45:57;;;;;;;1.77;1.23;;;;;;;17.62;31.04;99457.59;4986072;28;20034;-89
2022/04/17 08:48:22;;;;;;;1.45;1.30;;;;;;;17.17;29.77;99452.84;4986070;28;20081;-89
2022/04/17 08:50:51;;;;;;;2.75;1.55;;;;;;;17.51;30.02;99446.44;4986113;28;20023;-89
2022/04/17 08:53:17;;;;;;;2.70;1.30;;;;;;;17.53;30.23;99444.59;4986929;28;20065;-89
2022/04/17 08:55:43;;;;;;;2.60;1.50;;;;;;;17.41;30.35;99434.31;4986031;28;20314;-89
2022/04/17 08:58:10;;;;;;;3.25;1.45;;;;;;;16.91;30.78;99433.34;4987064;28;20046;-89
2022/04/17 09:00:36;;;;;;;4.18;1.55;;;;;;;17.70;30.19;99440.41;4985936;28;20037;-89
2022/04/17 09:03:01;;;;;;;2.63;1.50;;;;;;;17.85;28.96;99431.91;5001865;28;20019;-89
2022/04/17 09:05:28;;;;;;;2.17;1.30;;;;;;;17.91;29.07;99425.47;4985719;28;20029;-89
2022/04/17 09:07:54;;;;;;;5.18;1.30;;;;;;;17.69;29.97;99424.50;4985695;28;20118;-89
2022/04/17 09:10:30;;;;;;;1.75;1.13;;;;;;;17.92;29.67;99413.88;4985620;28;20246;-89
2022/04/17 09:12:59;;;;;;;0.80;0.80;;;;;;;18.20;28.22;99412.81;4985523;28;20022;-89
2022/04/17 09:15:26;;;;;;;4.75;1.23;;;;;;;18.36;29.25;99419.34;4985715;28;20056;-89
2022/04/17 09:17:52;;;;;;;3.72;1.50;;;;;;;17.58;28.31;99405.34;4985410;28;20022;-89
2022/04/17 09:20:20;;;;;;;4.60;1.60;;;;;;;17.80;28.36;99422.31;4985491;28;20046;-89
2022/04/17 09:22:47;;;;;;;3.25;1.17;;;;;;;17.94;29.74;99409.38;4985591;28;20022;-89
2022/04/17 09:25:14;;;;;;;1.63;1.33;;;;;;;16.90;28.44;99389.91;4985187;28;20046;-89
2022/04/17 09:28:04;;;;;;;2.17;1.13;;;;;;;18.29;28.46;99403.59;4986517;28;20029;-89
2022/04/17 09:30:34;;;;;;;1.30;1.10;;;;;;;18.15;27.53;99397.91;4986514;28;20049;-89
2022/04/17 09:33:05;;;;;;;1.63;1.05;;;;;;;17.25;28.40;99375.44;4985219;28;20113;-89
2022/04/17 09:35:31;;;;;;;1.77;1.23;;;;;;;17.44;28.75;99381.03;4985239;28;20218;-89
2022/04/17 09:37:59;;;;;;;3.30;1.27;;;;;;;17.12;27.99;99374.97;4985257;28;20018;-89
2022/04/17 09:40:28;;;;;;;2.85;1.30;;;;;;;17.92;27.96;99392.56;4986406;28;20322;-89
2022/04/17 09:43:11;;;;;;;3.45;1.30;;;;;;;17.71;27.50;99372.03;4986400;28;20025;-89
2022/04/17 09:45:56;;;;;;;2.58;1.10;;;;;;;18.10;27.82;99374.09;5001215;28;20019;-89
2022/04/17 09:48:22;;;;;;;1.25;1.00;;;;;;;18.17;27.43;99380.06;4985012;28;20023;-89
2022/04/17 09:50:47;;;;;;;1.35;0.90;;;;;;;18.68;27.80;99394.09;4984591;28;20222;-89
2022/04/17 09:53:32;;;;;;;4.35;1.17;;;;;;;18.47;26.96;99389.59;4984992;28;20019;-89
2022/04/17 09:56:09;;;;;;;1.52;0.88;;;;;;;18.00;27.20;99372.72;4984887;28;20046;-89
2022/04/17 09:58:51;;;;;;;0.90;0.73;;;;;;;17.97;27.15;99362.16;4985181;28;20038;-89
2022/04/17 10:01:18;;;;;;;1.80;1.10;;;;;;;18.18;28.41;99368.47;4984933;28;20089;-89
2022/04/17 10:03:45;;;;;;;1.23;0.90;;;;;;;17.82;28.46;99361.88;4984835;28;20260;-89
2022/04/17 10:06:11;;;;;;;2.03;0.90;;;;;;;18.38;28.63;99365.97;4984777;28;20046;-89
2022/04/17 10:08:42;;;;;;;2.50;0.88;;;;;;;17.81;28.40;99345.03;4984850;28;20310;-89
2022/04/17 10:11:07;;;;;;;1.40;0.80;;;;;;;18.03;28.64;99361.09;4985948;28;20026;-89
2022/04/17 10:13:33;;;;;;;2.00;0.98;;;;;;;18.11;26.93;99364.31;4984542;28;20318;-89
2022/04/17 10:16:01;;;;;;;3.28;1.00;;;;;;;17.80;27.42;99369.94;4984521;28;20069;-89
2022/04/17 10:18:32;;;;;;;3.53;0.80;;;;;;;17.63;27.70;99361.69;4984513;28;20034;-89
2022/04/17 10:20:58;;;;;;;1.48;0.90;;;;;;;17.92;27.50;99352.63;4984549;28;20224;-89
2022/04/17 10:23:26;;;;;;;1.88;1.02;;;;;;;17.16;27.74;99352.69;4985609;28;20066;-89
2022/04/17 10:26:01;;;;;;;0.85;0.85;;;;;;;18.23;28.26;99364.72;4984430;28;20046;-89
2022/04/17 10:28:33;;;;;;;2.95;1.30;;;;;;;18.02;27.35;99354.00;4984418;28;20019;-89
2022/04/17 10:31:14;;;;;;;1.63;0.90;;;;;;;17.65;27.87;99340.34;5000955;28;20093;-89
2022/04/17 10:33:58;;;;;;;1.45;1.10;;;;;;;17.76;28.00;99346.13;4984476;28;20029;-89
2022/04/17 10:36:53;;;;;;;3.70;1.02;;;;;;;18.24;28.92;99360.25;4984379;28;20042;-89
2022/04/17 10:39:42;;;;;;;2.90;1.17;;;;;;;18.86;30.68;99342.66;4984390;28;20042;-89
2022/04/17 10:42:09;;;;;;;1.98;1.25;;;;;;;18.80;30.33;99342.91;4984481;28;20033;-89
2022/04/17 10:44:45;;;;;;;2.33;1.20;;;;;;;18.12;31.55;99331.41;5000709;28;20031;-89
2022/04/17 10:47:20;;;;;;;2.42;1.15;;;;;;;18.23;29.98;99347.88;4984680;28;20018;-89
2022/04/17 10:49:56;;;;;;;3.15;1.27;;;;;;;17.83;31.42;99321.00;4984597;28;20030;-89
2022/04/17 10:52:33;;;;;;;1.42;0.88;;;;;;;18.21;31.37;99317.75;4984566;28;20062;-89
2022/04/17 10:55:11;;;;;;;1.25;0.98;;;;;;;18.39;32.04;99328.59;4984516;28;20318;-89
2022/04/17 10:57:48;;;;;;;5.53;1.30;;;;;;;18.00;31.42;99318.59;4984278;28;20314;-89
2022/04/17 11:00:32;;;;;;;2.15;1.05;;;;;;;18.63;30.41;99332.06;4984263;28;20061;-89
2022/04/17 11:03:02;;;;;;;0.85;0.80;;;;;;;18.25;29.68;99322.00;4984624;28;20042;-89
2022/04/17 11:08:20;;;;;;;3.87;1.23;;;;;;;17.75;30.09;99299.13;4989323;28;20214;-89
2022/04/17 11:10:53;;;;;;;2.20;1.10;;;;;;;17.63;30.93;99291.59;4989072;28;20252;-89
2022/04/17 11:13:18;;;;;;;1.30;1.00;;;;;;;17.94;30.67;99302.84;4988974;28;20274;-89
2022/04/17 11:15:52;;;;;;;1.63;0.95;;;;;;;17.80;30.21;99299.81;4987685;28;20019;-89
2022/04/17 11:18:23;;;;;;;3.17;1.17;;;;;;;17.93;29.88;99301.06;4987827;28;20134;-89
2022/04/17 11:20:52;;;;;;;3.13;1.35;;;;;;;17.24;30.20;99289.41;4987995;28;20030;-89
2022/04/17 11:23:49;;;;;;;1.63;1.10;;;;;;;17.59;30.34;99290.81;4987642;28;20326;-89
2022/04/17 11:26:15;;;;;;;4.10;1.00;;;;;;;17.58;29.39;99298.88;4987782;28;20035;-89
2022/04/17 11:28:41;;;;;;;0.93;0.68;;;;;;;17.44;30.83;99279.88;4988779;28;20029;-89
2022/04/17 11:31:08;;;;;;;1.85;0.77;;;;;;;17.58;29.29;99280.22;4987696;28;20041;-89
2022/04/17 11:33:33;;;;;;;1.73;0.93;;;;;;;16.97;29.53;99271.78;4987424;28;20019;-89
2022/04/17 11:35:59;;;;;;;1.50;0.98;;;;;;;16.73;29.80;99264.63;4987433;28;20106;-89
2022/04/17 11:38:24;;;;;;;1.52;0.90;;;;;;;16.80;30.52;99282.13;4987371;28;20207;-89
2022/04/17 11:40:50;;;;;;;4.82;1.35;;;;;;;16.26;30.25;99259.97;4987294;28;20069;-89
2022/04/17 11:43:17;;;;;;;1.92;1.05;;;;;;;15.87;30.42;99263.91;4987285;28;20082;-89
2022/04/17 11:45:45;;;;;;;2.20;0.80;;;;;;;16.18;30.83;99277.97;4987229;28;20023;-89
2022/04/17 11:48:13;;;;;;;1.65;0.82;;;;;;;16.07;31.11;99264.13;4987258;28;20014;-89
2022/04/17 11:50:39;;;;;;;1.40;1.20;;;;;;;16.37;31.82;99249.91;4988442;28;20026;-89